Time;durP1;ratioP1;P1;durP2;ratioP2;P2;SDS_P1;SDS_P2;PMS_P1;PMS_P2;Temp;Humidity;BMP_temperature;BMP_pressure;BME280_temperature;BME280_humidity;BME280_pressure;Samples;Min_cycle;Max_cycle;Signal;HPM_P1;HPM_P2
2021/10/05 00:00:19;;;;;;;55.67;40.50;;;;;;;11.34;100.00;99327.06;2115719;28;20216;-76
2021/10/05 00:01:20;;;;;;;60.92;42.58;;;;;;;11.40;100.00;99325.09;2107367;28;20197;-76
2021/10/05 00:02:22;;;;;;;69.33;45.47;;;;;;;11.46;100.00;99326.59;2116041;28;20216;-76
2021/10/05 00:03:25;;;;;;;64.45;43.72;;;;;;;11.53;100.00;99327.00;2116359;28;20553;-77
2021/10/05 00:04:29;;;;;;;68.22;44.88;;;;;;;11.61;100.00;99326.31;2116411;28;20292;-77
2021/10/05 00:05:31;;;;;;;64.80;43.97;;;;;;;11.67;100.00;99319.78;2115596;28;20200;-76
2021/10/05 00:06:31;;;;;;;63.78;43.88;;;;;;;11.70;100.00;99321.84;2107294;28;20245;-77
2021/10/05 00:07:34;;;;;;;66.80;42.93;;;;;;;11.72;100.00;99318.88;2107261;28;20679;-77
2021/10/05 00:08:35;;;;;;;57.35;39.03;;;;;;;11.70;100.00;99315.72;2115620;28;20204;-76
2021/10/05 00:09:37;;;;;;;54.37;38.30;;;;;;;11.70;100.00;99316.50;2107036;28;20192;-77
2021/10/05 00:10:39;;;;;;;59.28;39.33;;;;;;;11.67;100.00;99306.44;2107256;28;20293;-77
2021/10/05 00:11:42;;;;;;;52.63;38.25;;;;;;;11.65;100.00;99319.31;2115767;28;20184;-77
2021/10/05 00:12:44;;;;;;;58.30;37.78;;;;;;;11.64;100.00;99323.06;2115625;28;20215;-77
2021/10/05 00:13:45;;;;;;;49.58;36.85;;;;;;;11.60;100.00;99316.72;2107268;28;20206;-76
2021/10/05 00:14:47;;;;;;;52.67;37.47;;;;;;;11.61;100.00;99315.63;2107568;28;20288;-76
2021/10/05 00:15:48;;;;;;;50.72;36.20;;;;;;;11.59;100.00;99315.13;2115866;27;20208;-77
2021/10/05 00:16:50;;;;;;;55.35;37.35;;;;;;;11.59;100.00;99317.81;2115935;28;20177;-76
2021/10/05 00:17:51;;;;;;;55.42;37.97;;;;;;;11.60;100.00;99319.38;2115643;28;20674;-77
2021/10/05 00:18:53;;;;;;;55.00;40.22;;;;;;;11.60;100.00;99316.72;2115677;28;20294;-76
2021/10/05 00:19:53;;;;;;;55.00;41.20;;;;;;;11.61;100.00;99321.75;2116243;28;20181;-76
2021/10/05 00:20:55;;;;;;;54.40;39.10;;;;;;;11.65;100.00;99311.28;2115549;28;20286;-76
2021/10/05 00:21:56;;;;;;;56.10;39.75;;;;;;;11.66;100.00;99315.53;2115611;28;20197;-76
2021/10/05 00:22:59;;;;;;;55.73;39.00;;;;;;;11.66;100.00;99312.88;2115533;28;20189;-76
2021/10/05 00:24:01;;;;;;;57.03;39.38;;;;;;;11.66;100.00;99304.84;2107591;28;20209;-75
2021/10/05 00:25:03;;;;;;;58.83;39.42;;;;;;;11.66;100.00;99309.41;2107492;28;20567;-75
2021/10/05 00:26:04;;;;;;;50.97;37.60;;;;;;;11.65;100.00;99308.59;2115497;28;20238;-75
2021/10/05 00:27:06;;;;;;;52.20;37.47;;;;;;;11.66;100.00;99304.06;2116385;28;20699;-75
2021/10/05 00:28:06;;;;;;;56.17;38.40;;;;;;;11.65;100.00;99307.81;2115470;28;20197;-75
2021/10/05 00:29:08;;;;;;;65.67;39.90;;;;;;;11.64;100.00;99307.03;2115579;28;20210;-75
2021/10/05 00:30:10;;;;;;;51.05;36.63;;;;;;;11.65;100.00;99303.25;2115430;28;20197;-76
2021/10/05 00:31:11;;;;;;;49.50;38.47;;;;;;;11.65;100.00;99299.81;2107414;28;20205;-76
2021/10/05 00:32:13;;;;;;;47.65;36.38;;;;;;;11.63;100.00;99300.06;2115549;28;20596;-76
2021/10/05 00:33:18;;;;;;;50.17;37.25;;;;;;;11.61;100.00;99294.25;2115455;27;20193;-76
2021/10/05 00:34:18;;;;;;;51.85;37.83;;;;;;;11.59;100.00;99291.06;2115590;28;20188;-76
2021/10/05 00:35:20;;;;;;;51.87;38.13;;;;;;;11.60;100.00;99292.66;2115412;28;20255;-76
2021/10/05 00:36:21;;;;;;;51.35;38.75;;;;;;;11.57;100.00;99285.25;2107326;28;20197;-77
2021/10/05 00:37:23;;;;;;;48.57;37.50;;;;;;;11.58;100.00;99292.16;2115745;28;20278;-76
2021/10/05 00:38:25;;;;;;;57.55;40.72;;;;;;;11.58;100.00;99292.16;2115432;28;20204;-76
2021/10/05 00:39:29;;;;;;;60.15;40.33;;;;;;;11.56;100.00;99295.16;2115473;28;20189;-77
2021/10/05 00:40:30;;;;;;;56.90;40.47;;;;;;;11.57;100.00;99298.59;2116258;28;20556;-76
2021/10/05 00:41:33;;;;;;;62.20;40.27;;;;;;;11.56;100.00;99291.69;2115375;28;20311;-77
2021/10/05 00:42:33;;;;;;;54.80;39.78;;;;;;;11.57;100.00;99290.59;2107075;28;20294;-77
2021/10/05 00:43:35;;;;;;;55.30;40.43;;;;;;;11.56;100.00;99289.00;2115272;28;20693;-76
2021/10/05 00:44:38;;;;;;;65.82;41.63;;;;;;;11.55;100.00;99282.88;2107424;28;20206;-76
2021/10/05 00:45:41;;;;;;;58.88;42.20;;;;;;;11.54;100.00;99289.28;2107045;28;20197;-76
2021/10/05 00:46:42;;;;;;;60.53;41.22;;;;;;;11.54;100.00;99283.16;2115412;28;20738;-76
2021/10/05 00:47:44;;;;;;;56.38;39.17;;;;;;;11.54;100.00;99280.47;2116071;28;20549;-77
2021/10/05 00:48:45;;;;;;;59.72;38.10;;;;;;;11.53;100.00;99285.03;2116017;28;20647;-78
2021/10/05 00:49:49;;;;;;;53.50;37.67;;;;;;;11.52;100.00;99282.66;2115991;28;20598;-77
2021/10/05 00:50:49;;;;;;;59.63;39.42;;;;;;;11.51;100.00;99283.75;2116089;28;20666;-77
2021/10/05 00:51:53;;;;;;;48.00;37.37;;;;;;;11.52;100.00;99285.34;2115527;27;20629;-77
2021/10/05 00:52:55;;;;;;;58.45;40.25;;;;;;;11.51;100.00;99289.09;2115582;27;20287;-77
2021/10/05 00:53:58;;;;;;;59.97;42.15;;;;;;;11.50;100.00;99279.50;2115345;28;20267;-77
2021/10/05 00:54:59;;;;;;;64.28;43.25;;;;;;;11.50;100.00;99284.84;2115270;28;20266;-77
2021/10/05 00:56:01;;;;;;;59.47;41.43;;;;;;;11.49;100.00;99280.59;2106912;28;20201;-77
2021/10/05 00:57:03;;;;;;;61.78;44.13;;;;;;;11.50;100.00;99285.63;2115566;28;20390;-77
2021/10/05 00:58:05;;;;;;;64.38;43.90;;;;;;;11.50;100.00;99282.97;2115462;28;20738;-77
2021/10/05 00:59:06;;;;;;;64.68;44.83;;;;;;;11.50;100.00;99282.16;2115256;28;20204;-77
2021/10/05 01:00:13;;;;;;;60.43;41.67;;;;;;;11.48;100.00;99284.34;2106774;28;20735;-77
2021/10/05 01:01:15;;;;;;;58.97;41.03;;;;;;;11.49;100.00;99284.06;2107833;28;21008;-77
2021/10/05 01:02:17;;;;;;;57.15;39.10;;;;;;;11.45;100.00;99279.56;2115330;28;20181;-77
2021/10/05 01:03:18;;;;;;;55.47;39.05;;;;;;;11.46;100.00;99279.28;2115194;28;20196;-77
2021/10/05 01:04:19;;;;;;;54.40;38.67;;;;;;;11.45;100.00;99282.25;2115518;27;20212;-77
2021/10/05 01:05:21;;;;;;;54.97;39.50;;;;;;;11.44;100.00;99280.66;2107125;28;20297;-77
2021/10/05 01:06:24;;;;;;;57.83;43.45;;;;;;;11.43;100.00;99282.56;2106734;28;20209;-77
2021/10/05 01:07:28;;;;;;;56.30;41.70;;;;;;;11.43;100.00;99284.44;2115357;28;20576;-77
2021/10/05 01:08:30;;;;;;;69.72;42.58;;;;;;;11.41;100.00;99283.94;2115475;27;20201;-77
2021/10/05 01:09:34;;;;;;;66.03;44.58;;;;;;;11.40;100.00;99279.69;2106671;28;20731;-77
2021/10/05 01:10:37;;;;;;;66.22;45.22;;;;;;;11.38;100.00;99288.00;2115401;28;20173;-77
2021/10/05 01:11:37;;;;;;;73.25;44.47;;;;;;;11.38;100.00;99285.34;2115894;28;20665;-78
2021/10/05 01:12:39;;;;;;;66.13;42.67;;;;;;;11.33;100.00;99275.53;2115823;28;20207;-77
2021/10/05 01:13:41;;;;;;;65.80;42.53;;;;;;;11.35;100.00;99279.78;2115441;28;20205;-77
2021/10/05 01:14:44;;;;;;;58.75;42.78;;;;;;;11.35;100.00;99283.22;2106976;28;20194;-77
2021/10/05 01:15:46;;;;;;;61.97;41.42;;;;;;;11.33;100.00;99275.53;2107079;28;20197;-77
2021/10/05 01:16:47;;;;;;;63.10;42.13;;;;;;;11.31;100.00;99272.38;2115268;27;20208;-77
2021/10/05 01:17:49;;;;;;;55.40;40.65;;;;;;;11.31;100.00;99271.56;2106694;28;20562;-77
2021/10/05 01:18:50;;;;;;;63.22;42.22;;;;;;;11.29;100.00;99269.19;2106699;28;20202;-77
2021/10/05 01:19:54;;;;;;;58.30;41.97;;;;;;;11.28;100.00;99261.47;2106648;28;20288;-77
2021/10/05 01:20:59;;;;;;;50.72;36.55;;;;;;;11.31;100.00;99272.38;2115330;28;20181;-77
2021/10/05 01:22:01;;;;;;;61.53;40.40;;;;;;;11.29;100.00;99260.38;2115748;28;20181;-78
2021/10/05 01:23:02;;;;;;;50.70;37.83;;;;;;;11.26;100.00;99263.63;2115443;27;20201;-77
2021/10/05 01:24:05;;;;;;;57.50;39.05;;;;;;;11.23;100.00;99262.34;2106651;28;20255;-77
2021/10/05 01:25:11;;;;;;;60.22;40.47;;;;;;;11.23;100.00;99267.69;2115392;28;20185;-77
2021/10/05 01:26:11;;;;;;;65.30;43.22;;;;;;;11.21;100.00;99269.88;2115654;28;20541;-77
2021/10/05 01:27:14;;;;;;;59.27;42.00;;;;;;;11.20;100.00;99260.25;2115260;28;20232;-77
2021/10/05 01:28:17;;;;;;;60.08;41.78;;;;;;;11.19;100.00;99261.34;2107237;28;20212;-77
2021/10/05 01:29:23;;;;;;;55.55;39.03;;;;;;;11.17;100.00;99262.72;2107218;28;20193;-77
2021/10/05 01:30:23;;;;;;;60.25;41.38;;;;;;;11.16;100.00;99259.28;2107086;28;20611;-77
2021/10/05 01:31:25;;;;;;;63.77;42.20;;;;;;;11.15;100.00;99257.69;2115100;28;20578;-77
2021/10/05 01:32:26;;;;;;;57.53;40.83;;;;;;;11.14;100.00;99258.00;2114957;28;20203;-77
2021/10/05 01:33:29;;;;;;;57.28;42.08;;;;;;;11.13;100.00;99259.09;2106840;28;20197;-77
2021/10/05 01:34:32;;;;;;;70.20;43.50;;;;;;;11.10;100.00;99257.78;2115112;28;20192;-77
2021/10/05 01:35:35;;;;;;;59.45;42.28;;;;;;;11.11;100.00;99259.34;2115005;28;20239;-77
2021/10/05 01:36:37;;;;;;;69.30;44.03;;;;;;;11.09;100.00;99252.72;2115029;28;20261;-77
2021/10/05 01:37:40;;;;;;;58.30;41.88;;;;;;;11.08;100.00;99257.28;2115719;28;20200;-77
2021/10/05 01:38:40;;;;;;;60.40;42.25;;;;;;;11.09;100.00;99250.06;2115258;28;20675;-77
2021/10/05 01:39:42;;;;;;;66.50;44.37;;;;;;;11.08;100.00;99251.16;2106563;28;20634;-77
2021/10/05 01:40:44;;;;;;;68.15;44.40;;;;;;;11.08;100.00;99259.94;2106890;28;20217;-77
2021/10/05 01:41:47;;;;;;;64.40;45.53;;;;;;;11.10;100.00;99255.09;2115043;28;20239;-77
2021/10/05 01:42:49;;;;;;;63.15;44.10;;;;;;;11.08;100.00;99246.59;2114931;28;20192;-77
2021/10/05 01:43:50;;;;;;;59.28;41.72;;;;;;;11.08;100.00;99245.81;2106527;28;20212;-77
2021/10/05 01:44:51;;;;;;;64.13;42.87;;;;;;;11.07;100.00;99245.03;2106504;28;20225;-77
2021/10/05 01:45:52;;;;;;;67.95;45.78;;;;;;;11.07;100.00;99247.69;2115258;28;20193;-77
2021/10/05 01:46:54;;;;;;;59.23;41.97;;;;;;;11.05;100.00;99249.88;2115525;28;20576;-77
2021/10/05 01:47:55;;;;;;;66.25;44.92;;;;;;;11.04;100.00;99250.97;2115777;28;20196;-77
2021/10/05 01:49:00;;;;;;;59.83;41.90;;;;;;;11.04;100.00;99250.97;2114880;28;20223;-77
2021/10/05 01:50:01;;;;;;;61.40;42.72;;;;;;;11.02;100.00;99258.44;2107307;28;20533;-77
2021/10/05 01:51:03;;;;;;;65.37;44.50;;;;;;;11.01;100.00;99246.19;2115208;28;20285;-77
2021/10/05 01:52:07;;;;;;;60.47;41.92;;;;;;;10.99;100.00;99253.69;2114879;28;20204;-77
2021/10/05 01:53:08;;;;;;;61.10;42.58;;;;;;;10.97;100.00;99250.53;2115131;28;20189;-77
2021/10/05 01:54:10;;;;;;;66.00;44.60;;;;;;;10.95;100.00;99250.06;2115491;28;20212;-77
2021/10/05 01:55:12;;;;;;;62.30;43.15;;;;;;;10.95;100.00;99253.50;2114857;28;20189;-77
2021/10/05 01:56:12;;;;;;;56.65;40.95;;;;;;;10.96;100.00;99254.31;2114997;28;20259;-77
2021/10/05 01:57:14;;;;;;;59.23;41.10;;;;;;;10.92;100.00;99253.28;2115709;28;20200;-77
2021/10/05 01:58:16;;;;;;;64.68;42.38;;;;;;;10.90;100.00;99250.13;2115033;27;20208;-77
2021/10/05 01:59:17;;;;;;;62.25;43.72;;;;;;;10.89;100.00;99245.88;2114851;28;20193;-77
2021/10/05 02:00:19;;;;;;;61.80;42.83;;;;;;;10.89;100.00;99254.69;2114750;28;20236;-77
2021/10/05 02:01:20;;;;;;;64.80;44.03;;;;;;;10.88;100.00;99254.97;2114894;28;20639;-77
2021/10/05 02:02:21;;;;;;;66.30;45.60;;;;;;;10.87;100.00;99254.19;2115667;28;20181;-77
2021/10/05 02:03:27;;;;;;;66.63;44.67;;;;;;;10.86;100.00;99259.78;2114737;28;20547;-77
2021/10/05 02:04:32;;;;;;;57.38;41.58;;;;;;;10.85;100.00;99258.22;2106495;28;20185;-77
2021/10/05 02:05:33;;;;;;;66.78;45.10;;;;;;;10.84;100.00;99260.09;2098761;28;20578;-77
2021/10/05 02:06:36;;;;;;;61.40;42.38;;;;;;;10.81;100.00;99260.69;2106238;28;20772;-77
2021/10/05 02:07:38;;;;;;;65.40;44.40;;;;;;;10.82;100.00;99253.47;2115459;28;20276;-77
2021/10/05 02:08:41;;;;;;;63.05;43.88;;;;;;;10.83;100.00;99252.38;2114736;28;20192;-77
2021/10/05 02:09:47;;;;;;;68.85;43.55;;;;;;;10.82;100.00;99253.47;2114642;28;20252;-77
2021/10/05 02:10:49;;;;;;;59.17;42.25;;;;;;;10.81;100.00;99251.88;2115431;28;20647;-77
2021/10/05 02:11:50;;;;;;;61.83;42.00;;;;;;;10.78;100.00;99249.81;2115408;28;20189;-77
2021/10/05 02:12:52;;;;;;;68.00;43.87;;;;;;;10.76;100.00;99247.41;2114367;28;20284;-77
2021/10/05 02:13:52;;;;;;;61.20;41.70;;;;;;;10.74;100.00;99254.91;2106305;28;20194;-77
2021/10/05 02:14:54;;;;;;;64.70;44.40;;;;;;;10.71;100.00;99248.28;2114687;28;20281;-77
2021/10/05 02:15:55;;;;;;;60.72;42.53;;;;;;;10.70;100.00;99246.72;2114772;28;20189;-77
2021/10/05 02:16:58;;;;;;;63.23;42.33;;;;;;;10.68;100.00;99240.84;2114745;28;20185;-77
2021/10/05 02:18:00;;;;;;;66.65;43.42;;;;;;;10.69;100.00;99249.69;2114959;28;20271;-77
2021/10/05 02:19:01;;;;;;;59.08;41.00;;;;;;;10.66;100.00;99240.38;2115402;28;20196;-77
2021/10/05 02:20:04;;;;;;;61.87;42.83;;;;;;;10.65;100.00;99240.66;2114698;28;20232;-77
2021/10/05 02:21:05;;;;;;;70.18;44.42;;;;;;;10.61;100.00;99237.78;2106519;28;20220;-77
2021/10/05 02:22:07;;;;;;;65.07;45.92;;;;;;;10.62;100.00;99241.25;2114798;28;20264;-77
2021/10/05 02:23:11;;;;;;;65.93;44.95;;;;;;;10.61;100.00;99237.78;2114684;28;20193;-77
2021/10/05 02:25:31;;;;;;;64.35;44.30;;;;;;;10.57;100.00;99236.78;2114684;28;20180;-77
2021/10/05 02:26:34;;;;;;;71.30;44.90;;;;;;;10.56;100.00;99235.19;2114711;28;20188;-77
2021/10/05 02:27:36;;;;;;;68.68;45.72;;;;;;;10.56;100.00;99239.75;2115388;28;20192;-77
2021/10/05 02:28:36;;;;;;;69.22;45.33;;;;;;;10.56;100.00;99240.53;2115389;28;20203;-77
2021/10/05 02:29:39;;;;;;;64.43;43.07;;;;;;;10.54;100.00;99244.59;2114684;28;20763;-77
2021/10/05 02:30:40;;;;;;;77.20;48.47;;;;;;;10.55;100.00;99238.16;2106675;28;20223;-78
2021/10/05 02:31:43;;;;;;;79.73;50.77;;;;;;;10.57;100.00;99244.00;2114827;28;20181;-77
2021/10/05 02:32:45;;;;;;;84.28;52.65;;;;;;;10.58;100.00;99242.91;2115407;28;20678;-77
2021/10/05 02:33:46;;;;;;;79.53;51.30;;;;;;;10.61;100.00;99242.34;2115354;28;20193;-77
2021/10/05 02:34:48;;;;;;;92.40;55.43;;;;;;;10.61;100.00;99235.13;2114599;28;20254;-77
2021/10/05 02:35:48;;;;;;;77.57;50.30;;;;;;;10.64;100.00;99237.19;2114706;28;20196;-77
2021/10/05 02:36:51;;;;;;;76.93;51.07;;;;;;;10.64;100.00;99234.53;2115340;28;20189;-77
2021/10/05 02:37:52;;;;;;;66.70;47.17;;;;;;;10.62;100.00;99238.59;2115524;28;20208;-78
2021/10/05 02:38:55;;;;;;;93.53;53.00;;;;;;;10.60;100.00;99230.06;2115566;28;20216;-77
2021/10/05 02:39:57;;;;;;;70.00;46.63;;;;;;;10.61;100.00;99232.47;2115474;28;20188;-77
2021/10/05 02:40:57;;;;;;;70.38;45.13;;;;;;;10.59;100.00;99229.25;2115288;28;20678;-77
2021/10/05 02:41:59;;;;;;;79.10;49.13;;;;;;;10.56;100.00;99229.84;2115298;28;20557;-77
2021/10/05 02:43:01;;;;;;;84.15;50.83;;;;;;;10.57;100.00;99231.44;2115329;28;20193;-77
2021/10/05 02:44:02;;;;;;;77.75;49.53;;;;;;;10.58;100.00;99233.03;2114905;28;20201;-77
2021/10/05 02:45:05;;;;;;;83.20;51.63;;;;;;;10.56;100.00;99229.84;2106264;28;20704;-77
2021/10/05 02:46:06;;;;;;;80.07;49.65;;;;;;;10.56;100.00;99229.84;2114680;28;20245;-77
2021/10/05 02:47:08;;;;;;;81.38;52.95;;;;;;;10.55;100.00;99222.94;2114517;28;20698;-77
2021/10/05 02:48:09;;;;;;;78.68;51.38;;;;;;;10.55;100.00;99228.28;2114670;28;20193;-77
2021/10/05 02:49:11;;;;;;;86.27;52.03;;;;;;;10.58;100.00;99230.34;2114645;28;20651;-77
2021/10/05 02:50:13;;;;;;;79.32;49.53;;;;;;;10.58;100.00;99227.69;2114695;28;20192;-77
2021/10/05 02:51:13;;;;;;;72.60;48.53;;;;;;;10.56;100.00;99229.06;2115461;28;20193;-77
2021/10/05 02:52:22;;;;;;;78.43;50.13;;;;;;;10.55;100.00;99225.59;2114591;28;20254;-77
2021/10/05 02:53:23;;;;;;;74.95;49.60;;;;;;;10.52;100.00;99212.88;2107205;28;20198;-77
2021/10/05 02:54:26;;;;;;;71.20;46.93;;;;;;;10.53;100.00;99221.66;2106226;28;20229;-77
2021/10/05 02:55:26;;;;;;;65.18;45.88;;;;;;;10.51;100.00;99221.91;2114805;28;20691;-77
2021/10/05 02:56:28;;;;;;;67.93;45.77;;;;;;;10.47;100.00;99221.72;2115266;28;20255;-77
2021/10/05 02:57:29;;;;;;;66.63;45.70;;;;;;;10.46;100.00;99217.47;2114590;28;20196;-77
2021/10/05 02:58:32;;;;;;;78.13;50.00;;;;;;;10.45;100.00;99220.44;2114728;28;20674;-77
2021/10/05 02:59:33;;;;;;;78.43;49.85;;;;;;;10.44;100.00;99216.19;2114891;28;20673;-77
2021/10/05 03:00:35;;;;;;;72.47;48.15;;;;;;;10.45;100.00;99217.78;2114634;28;20683;-77
2021/10/05 03:01:36;;;;;;;83.72;50.03;;;;;;;10.44;100.00;99216.19;2115482;28;20193;-77
2021/10/05 03:02:38;;;;;;;77.93;51.20;;;;;;;10.46;100.00;99219.34;2115314;28;20655;-77
2021/10/05 03:03:38;;;;;;;78.47;49.83;;;;;;;10.47;100.00;99220.94;2115382;28;20534;-77
2021/10/05 03:04:42;;;;;;;84.33;52.13;;;;;;;10.50;100.00;99219.56;2114881;28;20247;-77
2021/10/05 03:05:44;;;;;;;79.93;53.15;;;;;;;10.50;100.00;99212.34;2114713;28;20192;-77
2021/10/05 03:06:45;;;;;;;86.03;52.53;;;;;;;10.52;100.00;99212.88;2115162;28;20272;-77
2021/10/05 03:07:46;;;;;;;84.20;52.45;;;;;;;10.53;100.00;99211.78;2115249;28;20781;-77
2021/10/05 03:08:52;;;;;;;90.35;55.20;;;;;;;10.54;100.00;99223.25;2115269;28;20280;-77
2021/10/05 03:09:56;;;;;;;94.10;54.17;;;;;;;10.54;100.00;99210.69;2114441;28;20224;-77
2021/10/05 03:10:58;;;;;;;97.10;53.45;;;;;;;10.55;100.00;99211.47;2114643;28;20221;-77
2021/10/05 03:12:00;;;;;;;82.13;50.03;;;;;;;10.57;100.00;99214.63;2115261;28;20185;-77
2021/10/05 03:13:01;;;;;;;82.90;50.90;;;;;;;10.53;100.00;99219.78;2115441;28;20267;-77
2021/10/05 03:14:03;;;;;;;84.57;51.90;;;;;;;10.54;100.00;99216.03;2114780;28;20276;-77
2021/10/05 03:15:05;;;;;;;93.10;52.13;;;;;;;10.54;100.00;99216.03;2106270;28;20193;-77
2021/10/05 03:16:07;;;;;;;80.32;51.55;;;;;;;10.53;100.00;99216.31;2114694;28;20193;-77
2021/10/05 03:17:09;;;;;;;86.95;52.70;;;;;;;10.55;100.00;99217.59;2115371;28;20192;-77
2021/10/05 03:18:09;;;;;;;85.75;53.47;;;;;;;10.55;100.00;99212.28;2115055;28;20200;-77
2021/10/05 03:19:13;;;;;;;79.00;50.83;;;;;;;10.55;100.00;99206.16;2116119;28;20644;-77
2021/10/05 03:20:15;;;;;;;85.65;52.03;;;;;;;10.52;100.00;99202.19;2116389;27;20220;-77
2021/10/05 03:21:19;;;;;;;89.97;54.00;;;;;;;10.53;100.00;99201.09;2116238;28;20651;-77
2021/10/05 03:22:19;;;;;;;88.72;53.58;;;;;;;10.52;100.00;99196.06;2116733;28;20189;-77
2021/10/05 03:23:21;;;;;;;91.63;51.60;;;;;;;10.52;100.00;99199.53;2116344;27;20193;-77
2021/10/05 03:24:22;;;;;;;92.38;52.75;;;;;;;10.52;100.00;99194.19;2107573;28;20197;-77
2021/10/05 03:25:25;;;;;;;85.90;53.90;;;;;;;10.52;100.00;99194.19;2115985;28;20242;-77
2021/10/05 03:26:27;;;;;;;93.57;52.70;;;;;;;10.53;100.00;99195.78;2107716;28;20577;-77
2021/10/05 03:27:28;;;;;;;91.03;52.90;;;;;;;10.53;100.00;99189.66;2107542;28;20278;-77
2021/10/05 03:28:31;;;;;;;92.13;53.97;;;;;;;10.54;100.00;99189.34;2115963;28;20258;-77
2021/10/05 03:29:33;;;;;;;91.30;53.78;;;;;;;10.55;100.00;99198.13;2116248;27;20197;-77
2021/10/05 03:30:34;;;;;;;95.78;54.80;;;;;;;10.53;100.00;99198.44;2116214;28;20639;-77
2021/10/05 03:31:35;;;;;;;91.57;55.00;;;;;;;10.53;100.00;99201.09;2116629;28;20272;-77
2021/10/05 03:32:36;;;;;;;100.85;57.83;;;;;;;10.55;100.00;99201.59;2115939;28;20654;-77
2021/10/05 03:33:39;;;;;;;98.60;57.37;;;;;;;10.53;100.00;99201.09;2116021;28;20538;-77
2021/10/05 03:34:39;;;;;;;104.93;60.13;;;;;;;10.53;100.00;99198.44;2115887;28;20279;-77
2021/10/05 03:35:41;;;;;;;106.50;61.03;;;;;;;10.55;100.00;99204.28;2107484;28;20197;-77
2021/10/05 03:36:43;;;;;;;110.43;61.95;;;;;;;10.55;100.00;99193.59;2107393;28;20267;-77
2021/10/05 03:37:44;;;;;;;110.97;64.18;;;;;;;10.54;100.00;99194.69;2107519;28;20194;-77
2021/10/05 03:38:46;;;;;;;112.60;64.43;;;;;;;10.56;100.00;99187.16;2107546;28;20675;-77
2021/10/05 03:39:48;;;;;;;108.88;63.88;;;;;;;10.55;100.00;99196.25;2116212;28;20222;-77
2021/10/05 03:40:54;;;;;;;110.63;64.55;;;;;;;10.55;100.00;99188.25;2116156;27;20196;-77
2021/10/05 03:41:54;;;;;;;109.88;63.72;;;;;;;10.54;100.00;99196.56;2116056;28;20654;-77
2021/10/05 03:42:56;;;;;;;105.90;64.23;;;;;;;10.55;100.00;99190.13;2116156;27;20293;-77
2021/10/05 03:43:57;;;;;;;114.68;64.45;;;;;;;10.53;100.00;99186.97;2107460;28;20740;-77
2021/10/05 03:44:59;;;;;;;113.40;62.45;;;;;;;10.54;100.00;99186.69;2115935;28;20189;-77
2021/10/05 03:46:00;;;;;;;111.68;64.30;;;;;;;10.53;100.00;99193.09;2116470;28;20279;-77
2021/10/05 03:47:02;;;;;;;111.73;62.43;;;;;;;10.48;100.00;99191.28;2115697;28;20215;-77
2021/10/05 03:48:03;;;;;;;118.38;64.60;;;;;;;10.51;100.00;99189.13;2107450;28;20194;-77
2021/10/05 03:49:05;;;;;;;113.15;65.18;;;;;;;10.50;100.00;99184.88;2115823;28;20678;-77
2021/10/05 03:50:08;;;;;;;113.88;66.85;;;;;;;10.50;100.00;99188.34;2107399;28;20189;-77
2021/10/05 03:51:09;;;;;;;105.90;63.45;;;;;;;10.48;100.00;99185.16;2107848;28;20200;-77
2021/10/05 03:52:10;;;;;;;115.47;65.15;;;;;;;10.49;100.00;99184.09;2107360;28;20197;-77
2021/10/05 03:53:16;;;;;;;113.70;65.13;;;;;;;10.49;100.00;99184.09;2115928;28;20192;-77
2021/10/05 03:54:17;;;;;;;110.15;63.42;;;;;;;10.47;100.00;99191.59;2115854;28;20185;-77
2021/10/05 03:55:20;;;;;;;114.65;65.00;;;;;;;10.46;100.00;99180.13;2115940;28;20674;-77
2021/10/05 03:56:24;;;;;;;115.07;63.85;;;;;;;10.47;100.00;99188.94;2116466;28;20593;-77
2021/10/05 03:57:24;;;;;;;111.93;65.05;;;;;;;10.44;100.00;99187.66;2116074;27;20559;-77
2021/10/05 03:58:27;;;;;;;121.80;65.13;;;;;;;10.43;100.00;99187.94;2115812;28;20199;-77
2021/10/05 03:59:28;;;;;;;103.82;61.28;;;;;;;10.43;100.00;99182.59;2115714;28;20566;-77
2021/10/05 04:00:29;;;;;;;107.40;62.20;;;;;;;10.42;100.00;99181.00;2106940;28;20699;-77
2021/10/05 04:01:32;;;;;;;115.57;64.83;;;;;;;10.40;100.00;99183.16;2116017;28;20659;-77
2021/10/05 04:02:33;;;;;;;101.13;62.28;;;;;;;10.36;100.00;99180.31;2116485;28;20189;-77
2021/10/05 04:03:35;;;;;;;102.10;60.27;;;;;;;10.39;100.00;99186.91;2115725;28;20196;-77
2021/10/05 04:04:36;;;;;;;100.90;61.00;;;;;;;10.37;100.00;99181.09;2116030;28;20352;-77
2021/10/05 04:05:37;;;;;;;95.77;58.10;;;;;;;10.37;100.00;99181.09;2116406;27;20267;-77
2021/10/05 04:06:39;;;;;;;86.38;57.88;;;;;;;10.36;100.00;99179.50;2115939;27;20208;-77
2021/10/05 04:07:42;;;;;;;93.90;57.50;;;;;;;10.36;100.00;99182.19;2115819;28;20209;-77
2021/10/05 04:08:43;;;;;;;100.72;58.22;;;;;;;10.36;100.00;99188.31;2115706;28;20216;-77
2021/10/05 04:09:48;;;;;;;93.72;57.75;;;;;;;10.36;100.00;99188.31;2115591;28;20216;-77
2021/10/05 04:10:50;;;;;;;96.40;58.42;;;;;;;10.35;100.00;99189.38;2116538;28;20677;-77
2021/10/05 04:11:52;;;;;;;94.45;57.83;;;;;;;10.35;100.00;99188.59;2115854;27;20204;-77
2021/10/05 04:12:54;;;;;;;90.50;55.33;;;;;;;10.36;100.00;99192.84;2115713;28;20192;-77
2021/10/05 04:13:54;;;;;;;94.35;57.13;;;;;;;10.34;100.00;99185.16;2115848;27;20208;-77
2021/10/05 04:14:56;;;;;;;106.90;59.80;;;;;;;10.33;100.00;99186.19;2107175;28;20284;-77
2021/10/05 04:15:58;;;;;;;92.95;57.40;;;;;;;10.32;100.00;99186.50;2107242;28;20197;-77
2021/10/05 04:17:00;;;;;;;94.00;57.95;;;;;;;10.31;100.00;99182.25;2115710;28;20591;-77
2021/10/05 04:18:01;;;;;;;94.47;57.72;;;;;;;10.27;100.00;99175.94;2116501;28;20184;-77
2021/10/05 04:19:03;;;;;;;93.60;56.83;;;;;;;10.30;100.00;99180.66;2115542;28;20196;-77
2021/10/05 04:20:05;;;;;;;89.32;55.42;;;;;;;10.29;100.00;99182.53;2115664;28;20619;-77
2021/10/05 04:21:08;;;;;;;92.80;57.10;;;;;;;10.28;100.00;99174.84;2115552;28;20308;-77
2021/10/05 04:22:11;;;;;;;89.50;54.78;;;;;;;10.27;100.00;99182.03;2115557;28;20189;-77
2021/10/05 04:23:13;;;;;;;94.22;55.30;;;;;;;10.26;100.00;99177.81;2107342;28;20243;-77
2021/10/05 04:24:14;;;;;;;95.47;56.13;;;;;;;10.26;100.00;99179.69;2115644;28;20556;-77
2021/10/05 04:25:15;;;;;;;87.27;54.83;;;;;;;10.23;100.00;99178.38;2115461;28;20291;-77
2021/10/05 04:26:16;;;;;;;88.97;53.38;;;;;;;10.24;100.00;99184.47;2115854;28;20193;-77
2021/10/05 04:27:19;;;;;;;84.30;53.17;;;;;;;10.22;100.00;99183.97;2115455;28;20359;-77
2021/10/05 04:28:20;;;;;;;83.95;51.85;;;;;;;10.22;100.00;99179.44;2115828;28;20189;-77
2021/10/05 04:29:22;;;;;;;92.23;53.00;;;;;;;10.22;100.00;99181.28;2115162;28;20185;-77
2021/10/05 04:30:25;;;;;;;86.90;52.88;;;;;;;10.19;100.00;99188.78;2115693;28;20217;-77
2021/10/05 04:31:26;;;;;;;86.72;52.35;;;;;;;10.18;100.00;99187.22;2116273;28;20189;-77
2021/10/05 04:32:28;;;;;;;81.37;52.03;;;;;;;10.17;100.00;99182.97;2116099;28;20249;-77
2021/10/05 04:33:28;;;;;;;84.65;52.13;;;;;;;10.16;100.00;99184.06;2115696;27;20196;-77
2021/10/05 04:34:30;;;;;;;84.67;52.20;;;;;;;10.16;100.00;99186.72;2115512;28;20221;-77
2021/10/05 04:35:32;;;;;;;83.82;52.85;;;;;;;10.14;100.00;99183.53;2116138;28;20189;-77
2021/10/05 04:36:33;;;;;;;81.00;52.85;;;;;;;10.15;100.00;99187.78;2115742;27;20276;-77
2021/10/05 04:37:35;;;;;;;80.97;52.37;;;;;;;10.14;100.00;99186.19;2115771;28;20215;-77
2021/10/05 04:38:35;;;;;;;81.38;52.55;;;;;;;10.14;100.00;99182.75;2116078;28;20517;-77
2021/10/05 04:39:37;;;;;;;81.10;52.00;;;;;;;10.14;100.00;99183.53;2115359;28;20690;-77
2021/10/05 04:40:38;;;;;;;82.57;52.08;;;;;;;10.11;100.00;99181.44;2106978;28;20198;-77
2021/10/05 04:41:40;;;;;;;85.23;51.57;;;;;;;10.13;100.00;99186.50;2115540;28;20234;-77
2021/10/05 04:42:46;;;;;;;84.03;54.80;;;;;;;10.11;100.00;99181.44;2115723;28;20204;-77